National Weather Service United States Department of Commerce
Click Here for Latest Airport Weather Warnings
 
Latest Huntsville TAF


000
FTUS44 KHUN 162320
TAFHSV
TAF
KHSV 162320Z 1700/1724 02005KT P6SM SKC
FM171600 04008G15KT P6SM SKC=

Latest Muscle Shoals TAF


468
FTUS44 KHUN 162320
TAFMSL
TAF
KMSL 162320Z 1700/1724 04005KT P6SM SKC
FM171600 05008G15KT P6SM SKC=


Back to Main Huntsville Weather Forecast Office Page